Airport View

Enter AWOS ICAO identifier for current METAR.

ex. KFNL

KBFI 201053Z 06004KT 10SM CLR 06/04 A3013 RMK AO2 SLP203 T00610044

20 Nov 2019 12:00

Phone: 206-763-6904

Other Area AWOS: KRNT - KSEA - KPWT - KTIW

TAF AMD KBFI 200900Z 2009/2106 00000KT P6SM SCT020 TEMPO 2009/2012 BKN020 FM201200 00000KT P6SM SKC FM202100 36004KT P6SM SKC